sensor_id;sensor_type;location;lat;lon;timestamp;P1;durP1;ratioP1;P2;durP2;ratioP2
45033;SDS011;30771;47.988;-4.186;2023-12-14T00:01:41;8.02;;;1.60;;
45033;SDS011;30771;47.988;-4.186;2023-12-14T00:04:08;12.57;;;1.63;;
45033;SDS011;30771;47.988;-4.186;2023-12-14T00:06:35;9.02;;;1.90;;
45033;SDS011;30771;47.988;-4.186;2023-12-14T00:09:01;11.55;;;1.55;;
45033;SDS011;30771;47.988;-4.186;2023-12-14T00:11:28;5.05;;;1.50;;
45033;SDS011;30771;47.988;-4.186;2023-12-14T00:13:55;17.17;;;2.17;;
45033;SDS011;30771;47.988;-4.186;2023-12-14T00:16:21;11.52;;;1.40;;
45033;SDS011;30771;47.988;-4.186;2023-12-14T00:18:48;10.65;;;1.50;;
45033;SDS011;30771;47.988;-4.186;2023-12-14T00:21:14;15.27;;;2.50;;
45033;SDS011;30771;47.988;-4.186;2023-12-14T00:23:41;12.68;;;1.40;;
45033;SDS011;30771;47.988;-4.186;2023-12-14T00:26:08;9.70;;;1.52;;
45033;SDS011;30771;47.988;-4.186;2023-12-14T00:28:35;11.80;;;2.08;;
45033;SDS011;30771;47.988;-4.186;2023-12-14T00:31:02;11.30;;;1.90;;
45033;SDS011;30771;47.988;-4.186;2023-12-14T00:33:28;11.90;;;1.95;;
45033;SDS011;30771;47.988;-4.186;2023-12-14T00:35:55;8.32;;;1.42;;
45033;SDS011;30771;47.988;-4.186;2023-12-14T00:38:22;7.40;;;1.30;;
45033;SDS011;30771;47.988;-4.186;2023-12-14T00:40:49;8.85;;;1.25;;
45033;SDS011;30771;47.988;-4.186;2023-12-14T00:43:16;7.15;;;1.73;;
45033;SDS011;30771;47.988;-4.186;2023-12-14T00:45:42;10.30;;;1.55;;
45033;SDS011;30771;47.988;-4.186;2023-12-14T00:48:09;9.20;;;1.80;;
45033;SDS011;30771;47.988;-4.186;2023-12-14T00:50:36;12.80;;;1.70;;
45033;SDS011;30771;47.988;-4.186;2023-12-14T00:53:02;8.65;;;1.38;;
45033;SDS011;30771;47.988;-4.186;2023-12-14T00:55:29;11.52;;;1.85;;
45033;SDS011;30771;47.988;-4.186;2023-12-14T00:57:56;15.07;;;1.52;;
45033;SDS011;30771;47.988;-4.186;2023-12-14T01:00:22;8.60;;;1.20;;
45033;SDS011;30771;47.988;-4.186;2023-12-14T01:02:49;10.80;;;1.50;;
45033;SDS011;30771;47.988;-4.186;2023-12-14T01:05:16;10.13;;;1.20;;
45033;SDS011;30771;47.988;-4.186;2023-12-14T01:07:42;11.95;;;1.70;;
45033;SDS011;30771;47.988;-4.186;2023-12-14T01:10:09;6.60;;;1.38;;
45033;SDS011;30771;47.988;-4.186;2023-12-14T01:12:36;11.88;;;1.67;;
45033;SDS011;30771;47.988;-4.186;2023-12-14T01:15:03;11.77;;;1.42;;
45033;SDS011;30771;47.988;-4.186;2023-12-14T01:17:31;16.25;;;2.05;;
45033;SDS011;30771;47.988;-4.186;2023-12-14T01:19:57;10.85;;;1.35;;
45033;SDS011;30771;47.988;-4.186;2023-12-14T01:22:24;8.45;;;1.40;;
45033;SDS011;30771;47.988;-4.186;2023-12-14T01:24:51;10.52;;;1.50;;
45033;SDS011;30771;47.988;-4.186;2023-12-14T01:27:17;9.45;;;1.40;;
45033;SDS011;30771;47.988;-4.186;2023-12-14T01:29:44;11.63;;;2.05;;
45033;SDS011;30771;47.988;-4.186;2023-12-14T01:32:10;8.23;;;1.50;;
45033;SDS011;30771;47.988;-4.186;2023-12-14T01:34:37;16.23;;;1.50;;
45033;SDS011;30771;47.988;-4.186;2023-12-14T01:37:04;13.73;;;1.67;;
45033;SDS011;30771;47.988;-4.186;2023-12-14T01:39:30;14.35;;;1.90;;
45033;SDS011;30771;47.988;-4.186;2023-12-14T01:41:57;6.70;;;1.30;;
45033;SDS011;30771;47.988;-4.186;2023-12-14T01:44:23;12.40;;;2.03;;
45033;SDS011;30771;47.988;-4.186;2023-12-14T01:46:50;12.65;;;2.15;;
45033;SDS011;30771;47.988;-4.186;2023-12-14T01:49:17;13.02;;;1.63;;
45033;SDS011;30771;47.988;-4.186;2023-12-14T01:51:43;10.55;;;1.88;;
45033;SDS011;30771;47.988;-4.186;2023-12-14T01:54:10;9.65;;;1.40;;
45033;SDS011;30771;47.988;-4.186;2023-12-14T01:56:36;9.95;;;1.33;;
45033;SDS011;30771;47.988;-4.186;2023-12-14T01:59:03;9.25;;;1.35;;
45033;SDS011;30771;47.988;-4.186;2023-12-14T02:01:52;8.88;;;1.40;;
45033;SDS011;30771;47.988;-4.186;2023-12-14T02:04:21;11.52;;;1.58;;
45033;SDS011;30771;47.988;-4.186;2023-12-14T02:06:47;9.38;;;2.22;;
45033;SDS011;30771;47.988;-4.186;2023-12-14T02:09:14;11.48;;;1.42;;
45033;SDS011;30771;47.988;-4.186;2023-12-14T02:11:40;15.85;;;1.40;;
45033;SDS011;30771;47.988;-4.186;2023-12-14T02:14:11;11.50;;;1.75;;
45033;SDS011;30771;47.988;-4.186;2023-12-14T02:16:38;7.63;;;1.50;;
45033;SDS011;30771;47.988;-4.186;2023-12-14T02:19:05;10.80;;;1.40;;
45033;SDS011;30771;47.988;-4.186;2023-12-14T02:21:32;12.52;;;1.73;;
45033;SDS011;30771;47.988;-4.186;2023-12-14T02:23:59;6.30;;;1.70;;
45033;SDS011;30771;47.988;-4.186;2023-12-14T02:26:25;14.68;;;1.70;;
45033;SDS011;30771;47.988;-4.186;2023-12-14T02:28:52;11.85;;;1.77;;
45033;SDS011;30771;47.988;-4.186;2023-12-14T02:31:19;11.20;;;1.80;;
45033;SDS011;30771;47.988;-4.186;2023-12-14T02:33:46;6.60;;;0.90;;
45033;SDS011;30771;47.988;-4.186;2023-12-14T02:36:12;8.13;;;1.15;;
45033;SDS011;30771;47.988;-4.186;2023-12-14T02:38:39;8.68;;;1.60;;
45033;SDS011;30771;47.988;-4.186;2023-12-14T02:41:06;10.35;;;1.58;;
45033;SDS011;30771;47.988;-4.186;2023-12-14T02:43:33;14.10;;;1.73;;
45033;SDS011;30771;47.988;-4.186;2023-12-14T02:45:59;15.10;;;1.45;;
45033;SDS011;30771;47.988;-4.186;2023-12-14T02:48:26;9.35;;;1.70;;
45033;SDS011;30771;47.988;-4.186;2023-12-14T02:50:52;8.00;;;1.58;;
45033;SDS011;30771;47.988;-4.186;2023-12-14T02:53:19;10.75;;;2.03;;
45033;SDS011;30771;47.988;-4.186;2023-12-14T02:55:46;8.05;;;1.45;;
45033;SDS011;30771;47.988;-4.186;2023-12-14T02:58:13;10.57;;;1.75;;
45033;SDS011;30771;47.988;-4.186;2023-12-14T03:00:39;9.70;;;1.80;;
45033;SDS011;30771;47.988;-4.186;2023-12-14T03:03:06;9.25;;;1.70;;
45033;SDS011;30771;47.988;-4.186;2023-12-14T03:05:33;7.57;;;1.67;;
45033;SDS011;30771;47.988;-4.186;2023-12-14T03:07:59;11.27;;;2.00;;
45033;SDS011;30771;47.988;-4.186;2023-12-14T03:10:26;12.93;;;1.80;;
45033;SDS011;30771;47.988;-4.186;2023-12-14T03:12:53;10.50;;;1.80;;
45033;SDS011;30771;47.988;-4.186;2023-12-14T03:15:19;12.48;;;2.00;;
45033;SDS011;30771;47.988;-4.186;2023-12-14T03:17:46;9.93;;;1.70;;
45033;SDS011;30771;47.988;-4.186;2023-12-14T03:20:12;6.90;;;1.70;;
45033;SDS011;30771;47.988;-4.186;2023-12-14T03:22:39;9.35;;;1.63;;
45033;SDS011;30771;47.988;-4.186;2023-12-14T03:25:07;7.82;;;1.30;;
45033;SDS011;30771;47.988;-4.186;2023-12-14T03:27:35;6.63;;;1.30;;
45033;SDS011;30771;47.988;-4.186;2023-12-14T03:30:02;10.75;;;1.60;;
45033;SDS011;30771;47.988;-4.186;2023-12-14T03:32:28;11.95;;;1.55;;
45033;SDS011;30771;47.988;-4.186;2023-12-14T03:34:55;13.45;;;1.65;;
45033;SDS011;30771;47.988;-4.186;2023-12-14T03:37:22;6.55;;;1.75;;
45033;SDS011;30771;47.988;-4.186;2023-12-14T03:39:48;12.40;;;1.70;;
45033;SDS011;30771;47.988;-4.186;2023-12-14T03:42:15;14.88;;;1.95;;
45033;SDS011;30771;47.988;-4.186;2023-12-14T03:44:42;13.70;;;1.73;;
45033;SDS011;30771;47.988;-4.186;2023-12-14T03:47:08;8.57;;;1.40;;
45033;SDS011;30771;47.988;-4.186;2023-12-14T03:49:38;10.85;;;1.95;;
45033;SDS011;30771;47.988;-4.186;2023-12-14T03:52:05;7.32;;;1.52;;
45033;SDS011;30771;47.988;-4.186;2023-12-14T03:54:32;8.13;;;1.70;;
45033;SDS011;30771;47.988;-4.186;2023-12-14T03:56:58;12.00;;;1.83;;
45033;SDS011;30771;47.988;-4.186;2023-12-14T03:59:25;11.98;;;2.22;;
45033;SDS011;30771;47.988;-4.186;2023-12-14T04:01:51;15.45;;;2.20;;
45033;SDS011;30771;47.988;-4.186;2023-12-14T04:04:18;12.82;;;2.70;;
45033;SDS011;30771;47.988;-4.186;2023-12-14T04:06:45;11.18;;;1.80;;
45033;SDS011;30771;47.988;-4.186;2023-12-14T04:09:11;15.65;;;2.20;;
45033;SDS011;30771;47.988;-4.186;2023-12-14T04:11:38;13.93;;;3.97;;
45033;SDS011;30771;47.988;-4.186;2023-12-14T04:14:04;18.65;;;3.22;;
45033;SDS011;30771;47.988;-4.186;2023-12-14T04:16:31;12.65;;;2.35;;
45033;SDS011;30771;47.988;-4.186;2023-12-14T04:18:58;10.30;;;2.13;;
45033;SDS011;30771;47.988;-4.186;2023-12-14T04:21:25;13.10;;;1.65;;
45033;SDS011;30771;47.988;-4.186;2023-12-14T04:23:51;10.93;;;1.88;;
45033;SDS011;30771;47.988;-4.186;2023-12-14T04:26:18;10.25;;;2.10;;
45033;SDS011;30771;47.988;-4.186;2023-12-14T04:28:44;11.63;;;1.80;;
45033;SDS011;30771;47.988;-4.186;2023-12-14T04:31:11;10.05;;;1.65;;
45033;SDS011;30771;47.988;-4.186;2023-12-14T04:33:38;12.30;;;1.27;;
45033;SDS011;30771;47.988;-4.186;2023-12-14T04:36:05;11.35;;;1.65;;
45033;SDS011;30771;47.988;-4.186;2023-12-14T04:38:31;8.48;;;1.67;;
45033;SDS011;30771;47.988;-4.186;2023-12-14T04:40:58;13.60;;;1.45;;
45033;SDS011;30771;47.988;-4.186;2023-12-14T04:43:25;9.80;;;2.00;;
45033;SDS011;30771;47.988;-4.186;2023-12-14T04:45:51;10.23;;;1.50;;
45033;SDS011;30771;47.988;-4.186;2023-12-14T04:48:18;11.70;;;1.58;;
45033;SDS011;30771;47.988;-4.186;2023-12-14T04:50:44;11.18;;;1.88;;
45033;SDS011;30771;47.988;-4.186;2023-12-14T04:53:11;8.93;;;1.30;;
45033;SDS011;30771;47.988;-4.186;2023-12-14T04:55:38;11.07;;;1.70;;
45033;SDS011;30771;47.988;-4.186;2023-12-14T04:58:04;11.80;;;2.10;;
45033;SDS011;30771;47.988;-4.186;2023-12-14T05:00:31;6.20;;;1.48;;
45033;SDS011;30771;47.988;-4.186;2023-12-14T05:02:58;10.65;;;1.65;;
45033;SDS011;30771;47.988;-4.186;2023-12-14T05:05:25;12.18;;;2.28;;
45033;SDS011;30771;47.988;-4.186;2023-12-14T05:07:52;8.90;;;1.92;;
45033;SDS011;30771;47.988;-4.186;2023-12-14T05:10:18;11.60;;;1.73;;
45033;SDS011;30771;47.988;-4.186;2023-12-14T05:12:45;8.95;;;1.77;;
45033;SDS011;30771;47.988;-4.186;2023-12-14T05:15:12;11.32;;;1.80;;
45033;SDS011;30771;47.988;-4.186;2023-12-14T05:17:38;10.60;;;1.75;;
45033;SDS011;30771;47.988;-4.186;2023-12-14T05:20:07;8.63;;;1.52;;
45033;SDS011;30771;47.988;-4.186;2023-12-14T05:22:34;8.70;;;1.40;;
45033;SDS011;30771;47.988;-4.186;2023-12-14T05:25:02;7.88;;;1.67;;
45033;SDS011;30771;47.988;-4.186;2023-12-14T05:27:29;8.90;;;1.60;;
45033;SDS011;30771;47.988;-4.186;2023-12-14T05:29:56;8.32;;;1.27;;
45033;SDS011;30771;47.988;-4.186;2023-12-14T05:32:22;7.68;;;1.58;;
45033;SDS011;30771;47.988;-4.186;2023-12-14T05:34:49;11.05;;;1.50;;
45033;SDS011;30771;47.988;-4.186;2023-12-14T05:37:15;11.20;;;2.28;;
45033;SDS011;30771;47.988;-4.186;2023-12-14T05:39:42;9.50;;;1.95;;
45033;SDS011;30771;47.988;-4.186;2023-12-14T05:42:09;9.70;;;1.67;;
45033;SDS011;30771;47.988;-4.186;2023-12-14T05:44:35;9.35;;;1.85;;
45033;SDS011;30771;47.988;-4.186;2023-12-14T05:47:02;11.10;;;1.75;;
45033;SDS011;30771;47.988;-4.186;2023-12-14T05:49:29;11.93;;;1.63;;
45033;SDS011;30771;47.988;-4.186;2023-12-14T05:51:57;10.60;;;1.50;;
45033;SDS011;30771;47.988;-4.186;2023-12-14T05:54:25;10.52;;;1.75;;
45033;SDS011;30771;47.988;-4.186;2023-12-14T05:56:51;12.10;;;2.72;;
45033;SDS011;30771;47.988;-4.186;2023-12-14T05:59:18;13.48;;;3.30;;
45033;SDS011;30771;47.988;-4.186;2023-12-14T06:01:45;11.73;;;3.22;;
45033;SDS011;30771;47.988;-4.186;2023-12-14T06:04:12;14.63;;;2.30;;
45033;SDS011;30771;47.988;-4.186;2023-12-14T06:06:38;13.85;;;2.22;;
45033;SDS011;30771;47.988;-4.186;2023-12-14T06:09:05;14.70;;;2.03;;
45033;SDS011;30771;47.988;-4.186;2023-12-14T06:11:32;13.18;;;1.88;;
45033;SDS011;30771;47.988;-4.186;2023-12-14T06:13:59;10.60;;;1.58;;
45033;SDS011;30771;47.988;-4.186;2023-12-14T06:16:25;18.60;;;1.75;;
45033;SDS011;30771;47.988;-4.186;2023-12-14T06:18:52;9.90;;;1.85;;
45033;SDS011;30771;47.988;-4.186;2023-12-14T06:21:19;12.98;;;1.92;;
45033;SDS011;30771;47.988;-4.186;2023-12-14T06:23:45;14.68;;;2.63;;
45033;SDS011;30771;47.988;-4.186;2023-12-14T06:26:16;40.80;;;17.17;;
45033;SDS011;30771;47.988;-4.186;2023-12-14T06:28:43;34.40;;;20.27;;
45033;SDS011;30771;47.988;-4.186;2023-12-14T06:31:13;32.35;;;16.90;;
45033;SDS011;30771;47.988;-4.186;2023-12-14T06:33:40;22.08;;;8.60;;
45033;SDS011;30771;47.988;-4.186;2023-12-14T06:36:08;33.67;;;16.30;;
45033;SDS011;30771;47.988;-4.186;2023-12-14T06:38:37;23.85;;;10.27;;
45033;SDS011;30771;47.988;-4.186;2023-12-14T06:41:05;21.58;;;9.55;;
45033;SDS011;30771;47.988;-4.186;2023-12-14T06:43:31;15.25;;;5.63;;
45033;SDS011;30771;47.988;-4.186;2023-12-14T06:45:58;11.18;;;2.67;;
45033;SDS011;30771;47.988;-4.186;2023-12-14T06:48:25;10.43;;;1.98;;
45033;SDS011;30771;47.988;-4.186;2023-12-14T06:50:52;14.10;;;2.80;;
45033;SDS011;30771;47.988;-4.186;2023-12-14T06:53:18;10.85;;;2.50;;
45033;SDS011;30771;47.988;-4.186;2023-12-14T06:55:45;30.10;;;15.75;;
45033;SDS011;30771;47.988;-4.186;2023-12-14T06:58:12;13.70;;;2.90;;
45033;SDS011;30771;47.988;-4.186;2023-12-14T07:00:38;14.93;;;3.08;;
45033;SDS011;30771;47.988;-4.186;2023-12-14T07:03:05;13.75;;;2.35;;
45033;SDS011;30771;47.988;-4.186;2023-12-14T07:05:32;19.13;;;3.00;;
45033;SDS011;30771;47.988;-4.186;2023-12-14T07:07:58;13.93;;;2.58;;
45033;SDS011;30771;47.988;-4.186;2023-12-14T07:10:25;12.43;;;2.33;;
45033;SDS011;30771;47.988;-4.186;2023-12-14T07:12:52;12.05;;;2.25;;
45033;SDS011;30771;47.988;-4.186;2023-12-14T07:15:18;11.70;;;2.50;;
45033;SDS011;30771;47.988;-4.186;2023-12-14T07:17:45;16.88;;;2.80;;
45033;SDS011;30771;47.988;-4.186;2023-12-14T07:20:12;17.00;;;3.67;;
45033;SDS011;30771;47.988;-4.186;2023-12-14T07:22:39;20.88;;;4.43;;
45033;SDS011;30771;47.988;-4.186;2023-12-14T07:25:06;19.25;;;2.22;;
45033;SDS011;30771;47.988;-4.186;2023-12-14T07:27:33;13.52;;;2.10;;
45033;SDS011;30771;47.988;-4.186;2023-12-14T07:29:59;19.02;;;2.80;;
45033;SDS011;30771;47.988;-4.186;2023-12-14T07:32:26;15.50;;;2.40;;
45033;SDS011;30771;47.988;-4.186;2023-12-14T07:34:54;28.38;;;2.10;;
45033;SDS011;30771;47.988;-4.186;2023-12-14T07:37:21;20.25;;;2.45;;
45033;SDS011;30771;47.988;-4.186;2023-12-14T07:39:48;18.48;;;2.00;;
45033;SDS011;30771;47.988;-4.186;2023-12-14T07:42:15;14.35;;;2.00;;
45033;SDS011;30771;47.988;-4.186;2023-12-14T07:44:41;14.90;;;2.03;;
45033;SDS011;30771;47.988;-4.186;2023-12-14T07:47:08;11.98;;;2.17;;
45033;SDS011;30771;47.988;-4.186;2023-12-14T07:49:35;21.40;;;2.15;;
45033;SDS011;30771;47.988;-4.186;2023-12-14T07:52:01;9.40;;;1.98;;
45033;SDS011;30771;47.988;-4.186;2023-12-14T07:54:28;17.67;;;1.58;;
45033;SDS011;30771;47.988;-4.186;2023-12-14T07:56:55;12.95;;;1.83;;
45033;SDS011;30771;47.988;-4.186;2023-12-14T07:59:22;12.52;;;1.83;;
45033;SDS011;30771;47.988;-4.186;2023-12-14T08:01:49;13.25;;;1.90;;
45033;SDS011;30771;47.988;-4.186;2023-12-14T08:04:15;17.20;;;1.63;;
45033;SDS011;30771;47.988;-4.186;2023-12-14T08:06:42;16.52;;;2.50;;
45033;SDS011;30771;47.988;-4.186;2023-12-14T08:09:09;11.00;;;1.80;;
45033;SDS011;30771;47.988;-4.186;2023-12-14T08:11:35;20.73;;;2.05;;
45033;SDS011;30771;47.988;-4.186;2023-12-14T08:14:02;28.77;;;2.25;;
45033;SDS011;30771;47.988;-4.186;2023-12-14T08:16:29;19.35;;;1.60;;
45033;SDS011;30771;47.988;-4.186;2023-12-14T08:18:56;14.85;;;1.33;;
45033;SDS011;30771;47.988;-4.186;2023-12-14T08:21:23;15.30;;;1.92;;
45033;SDS011;30771;47.988;-4.186;2023-12-14T08:23:50;13.60;;;1.83;;
45033;SDS011;30771;47.988;-4.186;2023-12-14T08:26:16;14.40;;;1.50;;
45033;SDS011;30771;47.988;-4.186;2023-12-14T08:28:43;12.38;;;1.88;;
45033;SDS011;30771;47.988;-4.186;2023-12-14T08:31:10;14.40;;;1.88;;
45033;SDS011;30771;47.988;-4.186;2023-12-14T08:33:37;21.17;;;2.65;;
45033;SDS011;30771;47.988;-4.186;2023-12-14T08:36:04;14.38;;;1.38;;
45033;SDS011;30771;47.988;-4.186;2023-12-14T08:38:31;12.07;;;1.75;;
45033;SDS011;30771;47.988;-4.186;2023-12-14T08:40:58;15.50;;;1.80;;
45033;SDS011;30771;47.988;-4.186;2023-12-14T08:43:24;28.15;;;2.80;;
45033;SDS011;30771;47.988;-4.186;2023-12-14T08:45:51;9.82;;;1.73;;
45033;SDS011;30771;47.988;-4.186;2023-12-14T08:48:18;14.63;;;1.50;;
45033;SDS011;30771;47.988;-4.186;2023-12-14T08:50:45;21.45;;;2.30;;
45033;SDS011;30771;47.988;-4.186;2023-12-14T08:53:12;13.70;;;1.90;;
45033;SDS011;30771;47.988;-4.186;2023-12-14T08:55:38;15.20;;;2.10;;
45033;SDS011;30771;47.988;-4.186;2023-12-14T08:58:05;14.70;;;2.05;;
45033;SDS011;30771;47.988;-4.186;2023-12-14T09:00:32;13.07;;;1.70;;
45033;SDS011;30771;47.988;-4.186;2023-12-14T09:02:58;12.13;;;2.03;;
45033;SDS011;30771;47.988;-4.186;2023-12-14T09:05:25;18.98;;;2.22;;
45033;SDS011;30771;47.988;-4.186;2023-12-14T09:07:52;17.50;;;2.35;;
45033;SDS011;30771;47.988;-4.186;2023-12-14T09:10:19;21.98;;;2.50;;
45033;SDS011;30771;47.988;-4.186;2023-12-14T09:12:45;20.15;;;2.47;;
45033;SDS011;30771;47.988;-4.186;2023-12-14T09:15:12;14.13;;;1.77;;
45033;SDS011;30771;47.988;-4.186;2023-12-14T09:17:39;21.67;;;2.45;;
45033;SDS011;30771;47.988;-4.186;2023-12-14T09:20:06;17.23;;;1.60;;
45033;SDS011;30771;47.988;-4.186;2023-12-14T09:22:33;14.77;;;1.90;;
45033;SDS011;30771;47.988;-4.186;2023-12-14T09:25:00;18.85;;;2.20;;
45033;SDS011;30771;47.988;-4.186;2023-12-14T09:27:27;20.30;;;2.13;;
45033;SDS011;30771;47.988;-4.186;2023-12-14T09:29:53;16.35;;;2.30;;
45033;SDS011;30771;47.988;-4.186;2023-12-14T09:32:20;19.95;;;2.22;;
45033;SDS011;30771;47.988;-4.186;2023-12-14T09:34:47;14.27;;;2.25;;
45033;SDS011;30771;47.988;-4.186;2023-12-14T09:37:13;10.30;;;2.42;;
45033;SDS011;30771;47.988;-4.186;2023-12-14T09:39:40;14.52;;;2.70;;
45033;SDS011;30771;47.988;-4.186;2023-12-14T09:42:07;30.10;;;7.95;;
45033;SDS011;30771;47.988;-4.186;2023-12-14T09:44:34;17.80;;;3.65;;
45033;SDS011;30771;47.988;-4.186;2023-12-14T09:47:03;20.80;;;4.82;;
45033;SDS011;30771;47.988;-4.186;2023-12-14T09:49:31;14.65;;;3.92;;
45033;SDS011;30771;47.988;-4.186;2023-12-14T09:51:59;16.65;;;2.97;;
45033;SDS011;30771;47.988;-4.186;2023-12-14T09:54:26;16.75;;;6.25;;
45033;SDS011;30771;47.988;-4.186;2023-12-14T09:56:53;19.38;;;4.22;;
45033;SDS011;30771;47.988;-4.186;2023-12-14T09:59:20;19.65;;;3.55;;
45033;SDS011;30771;47.988;-4.186;2023-12-14T10:01:47;24.50;;;3.15;;
45033;SDS011;30771;47.988;-4.186;2023-12-14T10:04:15;26.85;;;4.03;;
45033;SDS011;30771;47.988;-4.186;2023-12-14T10:06:45;33.90;;;11.75;;
45033;SDS011;30771;47.988;-4.186;2023-12-14T10:09:13;27.95;;;5.82;;
45033;SDS011;30771;47.988;-4.186;2023-12-14T10:11:41;20.75;;;4.93;;
45033;SDS011;30771;47.988;-4.186;2023-12-14T10:16:44;33.75;;;7.40;;
45033;SDS011;30771;47.988;-4.186;2023-12-14T10:19:11;21.83;;;6.22;;
45033;SDS011;30771;47.988;-4.186;2023-12-14T10:21:38;24.35;;;4.45;;
45033;SDS011;30771;47.988;-4.186;2023-12-14T10:24:04;20.83;;;6.18;;
45033;SDS011;30771;47.988;-4.186;2023-12-14T10:26:32;31.30;;;4.88;;
45033;SDS011;30771;47.988;-4.186;2023-12-14T10:28:58;28.48;;;4.70;;
45033;SDS011;30771;47.988;-4.186;2023-12-14T10:31:25;31.63;;;3.90;;
45033;SDS011;30771;47.988;-4.186;2023-12-14T10:33:53;21.55;;;3.60;;
45033;SDS011;30771;47.988;-4.186;2023-12-14T10:36:20;23.38;;;3.08;;
45033;SDS011;30771;47.988;-4.186;2023-12-14T10:38:48;25.65;;;6.47;;
45033;SDS011;30771;47.988;-4.186;2023-12-14T10:41:23;22.88;;;3.13;;
45033;SDS011;30771;47.988;-4.186;2023-12-14T10:43:51;18.83;;;3.00;;
45033;SDS011;30771;47.988;-4.186;2023-12-14T10:46:21;13.77;;;2.80;;
45033;SDS011;30771;47.988;-4.186;2023-12-14T10:48:50;17.38;;;3.28;;
45033;SDS011;30771;47.988;-4.186;2023-12-14T10:51:18;13.17;;;3.37;;
45033;SDS011;30771;47.988;-4.186;2023-12-14T10:53:47;19.17;;;5.32;;
45033;SDS011;30771;47.988;-4.186;2023-12-14T10:56:14;7.88;;;3.35;;
45033;SDS011;30771;47.988;-4.186;2023-12-14T10:58:47;14.15;;;2.00;;
45033;SDS011;30771;47.988;-4.186;2023-12-14T11:01:23;7.35;;;1.80;;
45033;SDS011;30771;47.988;-4.186;2023-12-14T11:03:54;15.00;;;5.32;;
45033;SDS011;30771;47.988;-4.186;2023-12-14T11:08:52;7.15;;;1.92;;
45033;SDS011;30771;47.988;-4.186;2023-12-14T11:11:19;8.10;;;2.17;;
45033;SDS011;30771;47.988;-4.186;2023-12-14T11:13:50;8.57;;;1.83;;
45033;SDS011;30771;47.988;-4.186;2023-12-14T11:16:22;9.75;;;2.15;;
45033;SDS011;30771;47.988;-4.186;2023-12-14T11:24:34;9.52;;;2.47;;
45033;SDS011;30771;47.988;-4.186;2023-12-14T11:27:06;17.75;;;2.97;;
45033;SDS011;30771;47.988;-4.186;2023-12-14T11:29:33;19.50;;;4.50;;
45033;SDS011;30771;47.988;-4.186;2023-12-14T11:32:02;19.90;;;4.35;;
45033;SDS011;30771;47.988;-4.186;2023-12-14T11:34:29;19.25;;;4.63;;
45033;SDS011;30771;47.988;-4.186;2023-12-14T11:36:56;18.80;;;6.20;;
45033;SDS011;30771;47.988;-4.186;2023-12-14T11:39:23;15.70;;;3.58;;
45033;SDS011;30771;47.988;-4.186;2023-12-14T11:41:59;17.77;;;3.92;;
45033;SDS011;30771;47.988;-4.186;2023-12-14T11:44:27;12.30;;;3.70;;
45033;SDS011;30771;47.988;-4.186;2023-12-14T11:46:54;16.30;;;2.47;;
45033;SDS011;30771;47.988;-4.186;2023-12-14T11:49:21;18.15;;;2.90;;
45033;SDS011;30771;47.988;-4.186;2023-12-14T11:51:51;10.57;;;2.15;;
45033;SDS011;30771;47.988;-4.186;2023-12-14T11:54:21;11.30;;;1.67;;
45033;SDS011;30771;47.988;-4.186;2023-12-14T11:56:51;7.03;;;1.50;;
45033;SDS011;30771;47.988;-4.186;2023-12-14T11:59:19;11.80;;;1.75;;
45033;SDS011;30771;47.988;-4.186;2023-12-14T12:04:23;3.78;;;1.02;;
45033;SDS011;30771;47.988;-4.186;2023-12-14T12:06:58;3.63;;;0.70;;
45033;SDS011;30771;47.988;-4.186;2023-12-14T12:12:05;5.30;;;1.00;;
45033;SDS011;30771;47.988;-4.186;2023-12-14T12:14:33;7.25;;;1.27;;
45033;SDS011;30771;47.988;-4.186;2023-12-14T12:17:00;9.75;;;1.20;;
45033;SDS011;30771;47.988;-4.186;2023-12-14T12:19:27;5.82;;;1.20;;
45033;SDS011;30771;47.988;-4.186;2023-12-14T12:21:54;1.98;;;0.60;;
45033;SDS011;30771;47.988;-4.186;2023-12-14T12:24:20;2.25;;;0.55;;
45033;SDS011;30771;47.988;-4.186;2023-12-14T12:26:53;3.08;;;0.55;;
45033;SDS011;30771;47.988;-4.186;2023-12-14T12:29:21;2.55;;;0.60;;
45033;SDS011;30771;47.988;-4.186;2023-12-14T12:31:48;2.80;;;0.70;;
45033;SDS011;30771;47.988;-4.186;2023-12-14T12:34:15;4.50;;;0.80;;
45033;SDS011;30771;47.988;-4.186;2023-12-14T12:36:42;4.70;;;0.80;;
45033;SDS011;30771;47.988;-4.186;2023-12-14T12:39:08;4.22;;;1.13;;
45033;SDS011;30771;47.988;-4.186;2023-12-14T12:41:35;5.10;;;1.00;;
45033;SDS011;30771;47.988;-4.186;2023-12-14T12:44:02;6.90;;;1.13;;
45033;SDS011;30771;47.988;-4.186;2023-12-14T12:46:30;11.90;;;1.40;;
45033;SDS011;30771;47.988;-4.186;2023-12-14T12:48:56;8.80;;;1.70;;
45033;SDS011;30771;47.988;-4.186;2023-12-14T12:51:23;14.70;;;1.90;;
45033;SDS011;30771;47.988;-4.186;2023-12-14T12:53:50;11.45;;;1.83;;
45033;SDS011;30771;47.988;-4.186;2023-12-14T12:56:19;17.30;;;2.47;;
45033;SDS011;30771;47.988;-4.186;2023-12-14T12:58:46;15.50;;;2.58;;
45033;SDS011;30771;47.988;-4.186;2023-12-14T13:01:13;18.65;;;2.55;;
45033;SDS011;30771;47.988;-4.186;2023-12-14T13:03:39;21.60;;;2.78;;
45033;SDS011;30771;47.988;-4.186;2023-12-14T13:06:06;19.30;;;3.20;;
45033;SDS011;30771;47.988;-4.186;2023-12-14T13:08:33;21.67;;;2.90;;
45033;SDS011;30771;47.988;-4.186;2023-12-14T13:11:00;28.58;;;3.83;;
45033;SDS011;30771;47.988;-4.186;2023-12-14T13:13:40;28.25;;;3.40;;
45033;SDS011;30771;47.988;-4.186;2023-12-14T13:16:07;27.15;;;3.83;;
45033;SDS011;30771;47.988;-4.186;2023-12-14T13:18:33;25.50;;;3.40;;
45033;SDS011;30771;47.988;-4.186;2023-12-14T13:21:00;25.55;;;3.95;;
45033;SDS011;30771;47.988;-4.186;2023-12-14T13:23:27;32.40;;;3.80;;
45033;SDS011;30771;47.988;-4.186;2023-12-14T13:25:54;29.13;;;3.60;;
45033;SDS011;30771;47.988;-4.186;2023-12-14T13:28:21;29.30;;;3.65;;
45033;SDS011;30771;47.988;-4.186;2023-12-14T13:30:47;32.58;;;4.03;;
45033;SDS011;30771;47.988;-4.186;2023-12-14T13:33:14;38.70;;;5.00;;
45033;SDS011;30771;47.988;-4.186;2023-12-14T13:35:41;26.48;;;3.47;;
45033;SDS011;30771;47.988;-4.186;2023-12-14T13:38:08;39.80;;;5.07;;
45033;SDS011;30771;47.988;-4.186;2023-12-14T13:40:35;40.45;;;4.65;;
45033;SDS011;30771;47.988;-4.186;2023-12-14T13:43:01;36.42;;;4.65;;
45033;SDS011;30771;47.988;-4.186;2023-12-14T13:45:33;34.53;;;5.10;;
45033;SDS011;30771;47.988;-4.186;2023-12-14T13:47:59;41.88;;;4.43;;
45033;SDS011;30771;47.988;-4.186;2023-12-14T13:50:26;30.88;;;4.07;;
45033;SDS011;30771;47.988;-4.186;2023-12-14T13:52:53;32.05;;;3.75;;
45033;SDS011;30771;47.988;-4.186;2023-12-14T13:55:20;35.67;;;4.88;;
45033;SDS011;30771;47.988;-4.186;2023-12-14T13:57:47;31.30;;;4.53;;
45033;SDS011;30771;47.988;-4.186;2023-12-14T14:00:14;27.38;;;4.07;;
45033;SDS011;30771;47.988;-4.186;2023-12-14T14:02:42;39.53;;;4.82;;
45033;SDS011;30771;47.988;-4.186;2023-12-14T14:05:08;30.88;;;4.43;;
45033;SDS011;30771;47.988;-4.186;2023-12-14T14:07:35;24.17;;;3.80;;
45033;SDS011;30771;47.988;-4.186;2023-12-14T14:10:03;35.08;;;4.63;;
45033;SDS011;30771;47.988;-4.186;2023-12-14T14:12:30;34.28;;;5.00;;
45033;SDS011;30771;47.988;-4.186;2023-12-14T14:14:56;37.65;;;5.25;;
45033;SDS011;30771;47.988;-4.186;2023-12-14T14:17:23;22.15;;;4.38;;
45033;SDS011;30771;47.988;-4.186;2023-12-14T14:19:50;40.55;;;5.15;;
45033;SDS011;30771;47.988;-4.186;2023-12-14T14:22:16;32.80;;;4.20;;
45033;SDS011;30771;47.988;-4.186;2023-12-14T14:24:43;35.80;;;4.22;;
45033;SDS011;30771;47.988;-4.186;2023-12-14T14:27:10;42.25;;;5.57;;
45033;SDS011;30771;47.988;-4.186;2023-12-14T14:29:36;29.50;;;4.80;;
45033;SDS011;30771;47.988;-4.186;2023-12-14T14:32:03;33.45;;;4.13;;
45033;SDS011;30771;47.988;-4.186;2023-12-14T14:34:30;29.25;;;3.90;;
45033;SDS011;30771;47.988;-4.186;2023-12-14T14:36:57;28.92;;;3.47;;
45033;SDS011;30771;47.988;-4.186;2023-12-14T14:39:23;32.55;;;4.38;;